Keene, NH (03431)

9:00 PM EST on December 03, 2016 (GMT -0500)
Court St. | | Change Station

Elev 522 ft 42.94 °N, 72.29 °W | Updated 29 seconds ago

Light Rain
Light Rain
33.4 °F
Feels Like 33 °F
N
0.0
Wind Variable Wind from SE

Today
High -- | Low -- °F
--% Chance of Precip.
Yesterday
High -- | Low -- °F
Precip. -- in
Pressure 30.13 in
Visibility 10.0 miles
Clouds Overcast 2800 ft
Windchill 33 °F
Dew Point 25 °F
Humidity 73%
Rainfall 0.00 in
Snow Depth Not available.
7:03 AM 4:15 PM
Waxing Crescent, 18% visible
METAR KEEN 040156Z AUTO 02008KT 10SM -RA OVC028 01/M03 A3007 RMK AO2 RAE25B55 SLP202 T00111033 FZRANO PNO $
Pressure 30.13 in
Visibility 10.0 miles
Clouds Overcast 2800 ft
Windchill 33 °F
Dew Point 25 °F
Humidity 73%
Rainfall 0.00 in
Snow Depth Not available.
7:03 AM 4:15 PM
Waxing Crescent, 18% visible
METAR KEEN 040156Z AUTO 02008KT 10SM -RA OVC028 01/M03 A3007 RMK AO2 RAE25B55 SLP202 T00111033 FZRANO PNO $

10-Day Weather Forecast

Almanac

Astronomy

Dec. 03, 2016 Rise Set
Actual Time
Civil Twilight
Nautical Twilight
Astronomical Twilight
Moon
Length of Visible Light
Length of Day
Tomorrow will be .
, % of the Moon is Illuminated

Today's Extremes

State Highs State Lows

Community

WunderPhotos

Upload Photos

1,955,560 photos uploaded!

WunderBlog® & News

Nearby

Air Quality

  Air Quality AQ Index Pollutant
Not available.

Snow Depth

Station Depth Elevation

Earthquake Activity

City Distance Mag. Time & Date
Minimum magnitude displayed is 2.5.

Coastal Water Temperatures

Place Temperature

Stations

Nearby Weather Stations

Station Location Temp. Windchill Dew Point Humidity Wind Precip. Elev Updated Type
                   

Watches & Warnings

There are currently no watches in effect.